Time;durP1;ratioP1;P1;durP2;ratioP2;P2;SDS_P1;SDS_P2;PMS_P1;PMS_P2;Temp;Humidity;BMP_temperature;BMP_pressure;BME280_temperature;BME280_humidity;BME280_pressure;Samples;Min_cycle;Max_cycle;Signal;HPM_P1;HPM_P2
2023/03/26 00:01:35;;;;;;;20.73;2.60;;;7.70;99.90;;;;;;5017121;28;20058;-78
2023/03/26 00:04:02;;;;;;;23.63;3.20;;;7.70;99.90;;;;;;5049142;28;20048;-79
2023/03/26 00:06:37;;;;;;;24.55;2.97;;;7.60;99.90;;;;;;5050196;28;20041;-79
2023/03/26 00:09:05;;;;;;;22.73;2.78;;;7.60;99.90;;;;;;5049719;28;20627;-78
2023/03/26 00:11:31;;;;;;;17.70;3.25;;;7.60;99.90;;;;;;5031981;28;20041;-78
2023/03/26 00:13:57;;;;;;;15.65;2.65;;;7.80;99.90;;;;;;5023859;28;20542;-79
2023/03/26 00:16:26;;;;;;;32.50;4.07;;;7.60;99.90;;;;;;5034151;28;20056;-78
2023/03/26 00:18:52;;;;;;;19.20;2.92;;;7.60;99.90;;;;;;5030745;28;20061;-78
2023/03/26 00:21:26;;;;;;;23.42;2.85;;;7.50;99.90;;;;;;5049743;28;20039;-79
2023/03/26 00:23:58;;;;;;;20.92;2.35;;;7.50;99.90;;;;;;5048672;28;20861;-78
2023/03/26 00:26:25;;;;;;;25.27;3.25;;;7.50;99.90;;;;;;5052398;28;20094;-78
2023/03/26 00:28:51;;;;;;;23.33;3.13;;;7.50;99.90;;;;;;5036024;28;20079;-79
2023/03/26 00:31:17;;;;;;;21.42;2.60;;;7.50;99.90;;;;;;5057664;28;20076;-78
2023/03/26 00:33:43;;;;;;;16.80;2.38;;;7.60;99.90;;;;;;5056531;28;20119;-78
2023/03/26 00:36:16;;;;;;;22.77;3.05;;;7.80;99.90;;;;;;5049985;28;20131;-79
2023/03/26 00:38:43;;;;;;;20.42;3.78;;;7.40;99.90;;;;;;5054055;28;20074;-79
2023/03/26 00:41:21;;;;;;;25.70;3.22;;;7.40;99.90;;;;;;5057895;28;21650;-79
2023/03/26 00:43:48;;;;;;;22.02;2.97;;;7.40;99.90;;;;;;5055733;28;20047;-78
2023/03/26 00:46:16;;;;;;;18.25;2.78;;;7.40;99.90;;;;;;5063119;28;20035;-78
2023/03/26 00:48:42;;;;;;;12.93;2.42;;;7.40;99.90;;;;;;5063643;28;20115;-78
2023/03/26 00:51:09;;;;;;;17.98;3.03;;;7.40;99.90;;;;;;5060040;28;20090;-78
2023/03/26 00:53:37;;;;;;;19.30;2.72;;;7.40;99.90;;;;;;5037485;28;20122;-78
2023/03/26 00:56:05;;;;;;;18.08;2.60;;;7.40;99.90;;;;;;5054082;28;20052;-79
2023/03/26 00:58:31;;;;;;;20.30;2.38;;;7.40;99.90;;;;;;5053883;28;20056;-79
2023/03/26 01:00:59;;;;;;;23.15;2.67;;;7.30;99.90;;;;;;5056136;28;20040;-79
2023/03/26 01:03:32;;;;;;;20.15;2.70;;;7.30;99.90;;;;;;5055106;28;20519;-79
2023/03/26 01:06:10;;;;;;;17.98;3.20;;;7.30;99.90;;;;;;5055715;28;20060;-78
2023/03/26 01:08:46;;;;;;;21.40;2.60;;;7.30;99.90;;;;;;5068244;28;20374;-78
2023/03/26 01:11:24;;;;;;;16.55;2.65;;;7.30;99.90;;;;;;5052201;28;20177;-78
2023/03/26 01:13:58;;;;;;;17.20;2.75;;;7.30;99.90;;;;;;5036516;28;20048;-79
2023/03/26 01:16:43;;;;;;;16.67;2.85;;;7.30;99.90;;;;;;5033856;28;20048;-78
2023/03/26 01:19:28;;;;;;;17.58;2.72;;;7.30;99.90;;;;;;5057162;28;20084;-78
2023/03/26 01:21:54;;;;;;;19.63;2.80;;;7.30;99.90;;;;;;5030189;28;20049;-78
2023/03/26 01:24:20;;;;;;;23.63;3.58;;;7.20;99.90;;;;;;5022660;28;20081;-78
2023/03/26 01:26:56;;;;;;;17.55;3.20;;;7.20;99.90;;;;;;5053741;28;20052;-78
2023/03/26 01:29:51;;;;;;;17.15;3.13;;;7.20;99.90;;;;;;5054170;28;20696;-79
2023/03/26 01:32:54;;;;;;;23.52;3.13;;;7.20;99.90;;;;;;5014930;28;20421;-78
2023/03/26 01:35:31;;;;;;;22.50;2.88;;;7.20;99.90;;;;;;4990307;28;20052;-78
2023/03/26 01:38:45;;;;;;;21.45;2.85;;;7.20;99.90;;;;;;5014582;28;20106;-77
2023/03/26 01:41:32;;;;;;;19.35;2.80;;;7.20;99.90;;;;;;5013933;28;20049;-79
2023/03/26 01:44:27;;;;;;;24.80;3.17;;;7.10;99.90;;;;;;5013113;28;20042;-78
2023/03/26 01:46:54;;;;;;;22.77;3.60;;;7.10;99.90;;;;;;5037547;28;20143;-79
2023/03/26 01:49:20;;;;;;;24.13;3.28;;;7.10;99.90;;;;;;5032971;28;20064;-78
2023/03/26 01:51:46;;;;;;;18.02;2.97;;;7.10;99.90;;;;;;5025062;28;20119;-78
2023/03/26 01:54:20;;;;;;;23.38;3.83;;;7.10;99.90;;;;;;5037860;28;20155;-78
2023/03/26 01:57:13;;;;;;;21.27;2.80;;;6.90;99.90;;;;;;5043514;28;20044;-78
2023/03/26 01:59:48;;;;;;;19.05;3.60;;;7.00;99.90;;;;;;5020811;28;20040;-79
2023/03/26 02:02:37;;;;;;;21.88;3.20;;;7.00;99.90;;;;;;5038272;28;20682;-78
2023/03/26 02:05:18;;;;;;;20.67;2.80;;;7.00;99.90;;;;;;5044910;28;20543;-78
2023/03/26 02:07:52;;;;;;;21.17;2.53;;;7.00;99.90;;;;;;5044453;28;20072;-79
2023/03/26 02:10:26;;;;;;;22.05;3.03;;;6.90;99.90;;;;;;5047617;28;20041;-78
2023/03/26 02:12:52;;;;;;;25.77;3.28;;;7.00;99.90;;;;;;5046233;28;20531;-79
2023/03/26 02:15:18;;;;;;;25.27;3.47;;;6.90;99.90;;;;;;5047035;28;20048;-78
2023/03/26 02:17:44;;;;;;;18.80;2.67;;;6.90;99.90;;;;;;5043375;28;20518;-78
2023/03/26 02:20:13;;;;;;;20.67;3.55;;;6.90;99.90;;;;;;5041695;28;20064;-78
2023/03/26 02:22:44;;;;;;;19.52;3.08;;;6.90;99.90;;;;;;5030161;28;20045;-78
2023/03/26 02:25:12;;;;;;;13.70;2.25;;;6.90;99.90;;;;;;5029438;28;20064;-78
2023/03/26 02:27:38;;;;;;;19.52;2.70;;;7.00;99.90;;;;;;5039356;28;20144;-77
2023/03/26 02:30:06;;;;;;;21.42;2.55;;;7.00;99.90;;;;;;5040658;28;21624;-78
2023/03/26 02:32:32;;;;;;;22.15;2.65;;;7.00;99.90;;;;;;5046204;28;20043;-77
2023/03/26 02:34:58;;;;;;;23.80;3.55;;;7.00;99.90;;;;;;5042648;28;20369;-78
2023/03/26 02:37:24;;;;;;;19.77;3.05;;;7.00;99.90;;;;;;5023658;28;20405;-78
2023/03/26 02:39:50;;;;;;;22.55;2.88;;;7.00;99.90;;;;;;5052555;28;20060;-78
2023/03/26 02:42:16;;;;;;;16.05;2.65;;;7.00;99.90;;;;;;5032940;28;20041;-78
2023/03/26 02:44:41;;;;;;;26.17;3.13;;;7.00;99.90;;;;;;5048137;28;20741;-79
2023/03/26 02:47:07;;;;;;;22.40;2.30;;;7.00;99.90;;;;;;5049016;28;20120;-79
2023/03/26 02:49:33;;;;;;;25.30;2.58;;;6.90;99.90;;;;;;5049471;28;20448;-76
2023/03/26 02:52:00;;;;;;;15.43;2.80;;;7.00;99.90;;;;;;5038714;28;20044;-72
2023/03/26 02:54:26;;;;;;;17.38;2.58;;;7.00;99.90;;;;;;5038411;28;20047;-72
2023/03/26 02:56:51;;;;;;;20.55;3.00;;;7.00;99.90;;;;;;5030972;28;20044;-73
2023/03/26 02:59:17;;;;;;;21.13;2.95;;;7.40;99.90;;;;;;5031800;28;20083;-74
2023/03/26 03:01:43;;;;;;;22.20;2.83;;;7.00;99.90;;;;;;5044320;28;20041;-73
2023/03/26 03:04:10;;;;;;;20.13;2.75;;;7.00;99.90;;;;;;5043244;28;20295;-73
2023/03/26 03:06:39;;;;;;;25.77;3.22;;;7.00;99.90;;;;;;5043136;28;20875;-73
2023/03/26 03:09:09;;;;;;;23.77;3.45;;;6.90;99.90;;;;;;5045766;28;20056;-73
2023/03/26 03:11:35;;;;;;;23.55;2.65;;;6.90;99.90;;;;;;5038533;28;20362;-74
2023/03/26 03:14:02;;;;;;;24.52;3.63;;;6.90;99.90;;;;;;5038725;28;20037;-73
2023/03/26 03:16:28;;;;;;;20.88;2.92;;;6.90;99.90;;;;;;5048546;28;20032;-73
2023/03/26 03:18:55;;;;;;;19.08;2.47;;;7.20;99.90;;;;;;5031787;28;20059;-74
2023/03/26 03:21:26;;;;;;;23.20;3.63;;;6.90;99.90;;;;;;5050225;28;20098;-74
2023/03/26 03:23:53;;;;;;;;;;;6.90;99.90;;;;;;5033756;28;20401;-74
2023/03/26 03:26:20;;;;;;;21.65;2.67;;;6.80;99.90;;;;;;5045880;28;20002;-73
2023/03/26 03:28:50;;;;;;;14.65;2.30;;;6.80;99.90;;;;;;5042815;28;20099;-73
2023/03/26 03:31:17;;;;;;;20.85;3.00;;;7.00;99.90;;;;;;5041444;28;20131;-74
2023/03/26 03:33:45;;;;;;;16.58;2.90;;;7.00;99.90;;;;;;5028861;28;20130;-74
2023/03/26 03:36:13;;;;;;;18.17;2.85;;;6.80;99.90;;;;;;5039693;28;20107;-73
2023/03/26 03:38:40;;;;;;;19.65;2.80;;;6.80;99.90;;;;;;5049908;28;20052;-74
2023/03/26 03:41:07;;;;;;;14.32;2.45;;;6.80;99.90;;;;;;5058954;28;20044;-74
2023/03/26 03:43:33;;;;;;;17.25;2.35;;;6.80;99.90;;;;;;5055960;28;20071;-74
2023/03/26 03:46:00;;;;;;;14.70;2.63;;;6.80;99.90;;;;;;5062183;28;20082;-74
2023/03/26 03:48:26;;;;;;;19.27;3.38;;;6.80;99.90;;;;;;5055258;28;20051;-74
2023/03/26 03:50:53;;;;;;;18.13;2.60;;;6.70;99.90;;;;;;5059734;28;20044;-74
2023/03/26 03:53:21;;;;;;;18.13;2.45;;;6.70;99.90;;;;;;5059186;28;20087;-74
2023/03/26 03:55:52;;;;;;;18.63;2.72;;;6.70;99.90;;;;;;5058791;28;20044;-75
2023/03/26 03:58:22;;;;;;;;;;;6.60;99.90;;;;;;5036402;28;20048;-74
2023/03/26 04:00:49;;;;;;;15.30;2.05;;;6.60;99.90;;;;;;5056366;28;20007;-74
2023/03/26 04:03:15;;;;;;;18.10;2.50;;;6.50;99.90;;;;;;5046605;28;20039;-73
2023/03/26 04:05:48;;;;;;;14.50;2.55;;;6.50;99.90;;;;;;5053681;28;20036;-74
2023/03/26 04:08:15;;;;;;;15.98;2.58;;;6.50;99.90;;;;;;5056124;28;20679;-74
2023/03/26 04:10:42;;;;;;;15.27;2.38;;;6.40;99.90;;;;;;5054231;28;20382;-73
2023/03/26 04:13:09;;;;;;;18.63;2.67;;;6.30;99.90;;;;;;5053761;28;20048;-73
2023/03/26 04:15:35;;;;;;;19.70;2.70;;;6.30;99.90;;;;;;5064009;28;20115;-73
2023/03/26 04:18:01;;;;;;;19.05;2.80;;;6.60;99.90;;;;;;5053379;28;20435;-74
2023/03/26 04:20:26;;;;;;;18.00;2.60;;;6.20;99.90;;;;;;5057711;28;20041;-74
2023/03/26 04:22:52;;;;;;;13.00;2.70;;;6.20;99.90;;;;;;5063162;28;20037;-74
2023/03/26 04:25:20;;;;;;;16.42;2.55;;;6.20;99.90;;;;;;5054584;28;20052;-74
2023/03/26 04:27:47;;;;;;;14.43;2.35;;;6.10;99.90;;;;;;5049313;28;20119;-73
2023/03/26 04:30:17;;;;;;;14.50;2.45;;;6.10;99.90;;;;;;5060407;28;20127;-73
2023/03/26 04:32:44;;;;;;;17.50;2.75;;;6.70;99.90;;;;;;5040360;28;20548;-74
2023/03/26 04:35:15;;;;;;;17.33;2.30;;;6.10;99.90;;;;;;5054873;28;20048;-73
2023/03/26 04:37:43;;;;;;;15.32;2.05;;;6.20;99.90;;;;;;5039645;28;20110;-73
2023/03/26 04:40:14;;;;;;;14.93;2.20;;;6.30;99.90;;;;;;5059589;28;20109;-74
2023/03/26 04:42:44;;;;;;;16.48;2.47;;;6.20;99.90;;;;;;5052324;28;20522;-74
2023/03/26 04:45:11;;;;;;;18.00;2.45;;;6.10;99.90;;;;;;5054368;28;20037;-74
2023/03/26 04:47:38;;;;;;;13.35;2.58;;;6.10;99.90;;;;;;5054854;28;20405;-74
2023/03/26 04:50:09;;;;;;;13.18;2.00;;;6.10;99.90;;;;;;5053220;28;20044;-74
2023/03/26 04:52:35;;;;;;;15.17;2.40;;;6.10;99.90;;;;;;5051849;28;20040;-74
2023/03/26 04:55:01;;;;;;;16.25;2.80;;;6.20;99.90;;;;;;5056357;28;20213;-74
2023/03/26 04:57:31;;;;;;;23.30;3.50;;;6.00;99.90;;;;;;5053183;28;20123;-72
2023/03/26 04:59:57;;;;;;;19.55;2.72;;;6.00;99.90;;;;;;5059062;28;20036;-72
2023/03/26 05:02:24;;;;;;;20.15;3.85;;;6.00;99.90;;;;;;5043959;28;20105;-73
2023/03/26 05:04:50;;;;;;;13.15;2.60;;;6.00;99.90;;;;;;5057538;28;20218;-73
2023/03/26 05:07:19;;;;;;;15.32;2.38;;;6.00;99.90;;;;;;5031067;28;20509;-74
2023/03/26 05:09:45;;;;;;;19.50;2.80;;;6.60;99.90;;;;;;5060548;28;20123;-73
2023/03/26 05:12:11;;;;;;;21.80;2.58;;;5.90;99.90;;;;;;5036690;28;20607;-73
2023/03/26 05:14:36;;;;;;;26.08;4.32;;;6.00;99.90;;;;;;5057017;28;20115;-73
2023/03/26 05:17:09;;;;;;;17.85;3.10;;;5.90;99.90;;;;;;5051837;28;20056;-72
2023/03/26 05:19:37;;;;;;;17.67;2.55;;;5.90;99.90;;;;;;5047102;28;20056;-72
2023/03/26 05:22:02;;;;;;;17.10;2.30;;;5.80;99.90;;;;;;5035521;28;20051;-73
2023/03/26 05:24:28;;;;;;;16.25;2.35;;;5.80;99.90;;;;;;5047683;28;20595;-73
2023/03/26 05:26:55;;;;;;;14.85;2.40;;;5.80;99.90;;;;;;5050831;28;20071;-74
2023/03/26 05:29:22;;;;;;;18.38;2.72;;;5.70;99.90;;;;;;5050611;28;20496;-73
2023/03/26 05:31:49;;;;;;;14.75;2.25;;;5.70;99.90;;;;;;5050161;28;20051;-73
2023/03/26 05:34:14;;;;;;;19.38;3.63;;;5.70;99.90;;;;;;5066559;28;20040;-73
2023/03/26 05:36:41;;;;;;;13.63;2.03;;;5.70;99.90;;;;;;5061574;28;20892;-73
2023/03/26 05:39:07;;;;;;;16.10;2.25;;;6.00;99.90;;;;;;5047112;28;20074;-73
2023/03/26 05:41:34;;;;;;;11.15;2.08;;;5.60;99.90;;;;;;5050513;28;20052;-74
2023/03/26 05:44:00;;;;;;;17.75;2.72;;;5.60;99.90;;;;;;5046200;28;20107;-74
2023/03/26 05:46:26;;;;;;;16.38;2.30;;;5.80;99.90;;;;;;5040666;28;20611;-73
2023/03/26 05:48:52;;;;;;;21.95;2.45;;;5.60;99.90;;;;;;5060813;28;20040;-73
2023/03/26 05:51:19;;;;;;;20.77;2.65;;;5.60;99.90;;;;;;5047578;28;20044;-75
2023/03/26 05:53:45;;;;;;;15.07;2.10;;;5.60;99.90;;;;;;5032322;28;20052;-73
2023/03/26 05:56:11;;;;;;;16.27;2.47;;;5.60;99.90;;;;;;5060494;28;20052;-73
2023/03/26 05:58:37;;;;;;;20.50;2.47;;;5.70;99.90;;;;;;5062289;28;20041;-73
2023/03/26 06:01:07;;;;;;;14.73;2.40;;;5.60;99.90;;;;;;5050374;28;20106;-74
2023/03/26 06:03:38;;;;;;;17.25;2.47;;;5.60;99.90;;;;;;5047002;28;20048;-75
2023/03/26 06:06:09;;;;;;;24.40;3.25;;;5.70;99.90;;;;;;5055080;28;20044;-73
2023/03/26 06:08:34;;;;;;;22.73;3.75;;;5.60;99.90;;;;;;5050925;28;20062;-73
2023/03/26 06:11:03;;;;;;;23.17;3.00;;;5.60;99.90;;;;;;5053824;28;20127;-73
2023/03/26 06:13:29;;;;;;;23.83;3.00;;;5.60;99.90;;;;;;5052494;28;20403;-73
2023/03/26 06:15:57;;;;;;;20.77;2.97;;;5.60;99.90;;;;;;5030223;28;20135;-72
2023/03/26 06:18:23;;;;;;;16.85;2.95;;;5.60;99.90;;;;;;5059465;28;20048;-73
2023/03/26 06:20:50;;;;;;;18.33;2.40;;;5.60;99.90;;;;;;5059757;28;20080;-73
2023/03/26 06:23:17;;;;;;;25.10;3.33;;;5.60;99.90;;;;;;5033301;28;20058;-73
2023/03/26 06:25:44;;;;;;;23.88;2.33;;;5.60;99.90;;;;;;5062063;28;20120;-73
2023/03/26 06:28:11;;;;;;;18.90;2.58;;;5.90;99.90;;;;;;5045425;28;20130;-72
2023/03/26 06:30:37;;;;;;;17.20;2.40;;;5.60;99.90;;;;;;5064749;28;20050;-73
2023/03/26 06:33:03;;;;;;;19.60;2.13;;;5.60;99.90;;;;;;5044724;28;20049;-73
2023/03/26 06:35:30;;;;;;;17.73;2.15;;;5.60;99.90;;;;;;5045855;28;20049;-74
2023/03/26 06:37:57;;;;;;;14.00;2.15;;;5.70;99.90;;;;;;5068469;28;20037;-73
2023/03/26 06:40:23;;;;;;;13.75;2.17;;;5.70;99.90;;;;;;5037398;28;20175;-74
2023/03/26 06:42:49;;;;;;;24.60;3.25;;;5.70;99.90;;;;;;5042615;28;20056;-74
2023/03/26 06:45:15;;;;;;;14.63;2.35;;;5.70;99.90;;;;;;5044331;28;20041;-73
2023/03/26 06:47:41;;;;;;;26.05;3.10;;;5.70;99.90;;;;;;5029847;28;20127;-73
2023/03/26 06:50:07;;;;;;;25.58;6.05;;;5.90;99.90;;;;;;5046403;28;20041;-73
2023/03/26 06:52:33;;;;;;;34.00;9.38;;;5.80;99.90;;;;;;5023924;28;20037;-73
2023/03/26 06:54:59;;;;;;;30.98;8.63;;;5.80;99.90;;;;;;5042808;28;20040;-73
2023/03/26 06:57:25;;;;;;;30.23;9.88;;;5.80;99.90;;;;;;5034260;28;20494;-74
2023/03/26 06:59:51;;;;;;;57.25;18.45;;;5.80;99.90;;;;;;5034563;28;20055;-73
2023/03/26 07:02:16;;;;;;;42.85;13.50;;;5.80;99.90;;;;;;5028799;28;20029;-74
2023/03/26 07:04:42;;;;;;;28.10;6.70;;;5.80;99.90;;;;;;5039740;28;20052;-74
2023/03/26 07:07:08;;;;;;;25.33;4.28;;;5.80;99.90;;;;;;5037456;28;20045;-74
2023/03/26 07:09:34;;;;;;;24.33;4.47;;;5.80;99.90;;;;;;5043878;28;20509;-73
2023/03/26 07:12:00;;;;;;;35.50;5.00;;;6.10;99.90;;;;;;5041420;28;20044;-74
2023/03/26 07:14:29;;;;;;;25.63;6.45;;;5.80;99.90;;;;;;5037314;28;20048;-74
2023/03/26 07:16:59;;;;;;;21.60;4.05;;;5.90;99.90;;;;;;5036236;28;20041;-74
2023/03/26 07:19:25;;;;;;;20.00;3.23;;;5.90;99.90;;;;;;5041058;28;20044;-73
2023/03/26 07:21:52;;;;;;;22.77;4.63;;;5.90;99.90;;;;;;5022169;28;20045;-73
2023/03/26 07:24:18;;;;;;;21.70;3.90;;;5.90;99.90;;;;;;5041606;28;20207;-74
2023/03/26 07:26:59;;;;;;;21.08;5.70;;;5.90;99.90;;;;;;5037745;28;20049;-72
2023/03/26 07:29:51;;;;;;;22.20;3.25;;;5.90;99.90;;;;;;5035276;28;20102;-72
2023/03/26 07:32:27;;;;;;;21.63;2.70;;;6.00;99.90;;;;;;5038782;28;20479;-73
2023/03/26 07:35:12;;;;;;;14.63;2.38;;;6.00;99.90;;;;;;5038962;28;20033;-73
2023/03/26 07:37:48;;;;;;;20.85;2.65;;;6.00;99.90;;;;;;5035110;28;20053;-73
2023/03/26 07:40:42;;;;;;;18.58;2.58;;;6.00;99.90;;;;;;5028784;28;20040;-72
2023/03/26 07:43:29;;;;;;;17.00;2.38;;;6.00;99.90;;;;;;5042075;28;20068;-73
2023/03/26 07:45:56;;;;;;;24.33;4.20;;;6.00;99.90;;;;;;5039232;28;20139;-73
2023/03/26 07:48:28;;;;;;;25.13;4.13;;;6.00;99.90;;;;;;5040003;28;20053;-73
2023/03/26 07:50:55;;;;;;;24.50;5.72;;;6.00;99.90;;;;;;5038704;28;20275;-74
2023/03/26 07:53:21;;;;;;;21.90;3.33;;;6.10;99.90;;;;;;5038072;28;20047;-73
2023/03/26 07:56:14;;;;;;;19.48;3.53;;;6.10;99.90;;;;;;5037578;28;20547;-72
2023/03/26 07:58:49;;;;;;;19.42;2.78;;;6.20;99.90;;;;;;5043370;28;20096;-73
2023/03/26 08:01:36;;;;;;;18.63;2.78;;;6.20;99.90;;;;;;5035981;28;20068;-74
2023/03/26 08:04:09;;;;;;;24.52;3.22;;;6.40;99.90;;;;;;5033817;28;20056;-72
2023/03/26 08:06:38;;;;;;;22.85;2.53;;;6.80;99.90;;;;;;5040752;28;20127;-73
2023/03/26 08:09:49;;;;;;;13.60;2.40;;;6.70;99.90;;;;;;5039156;28;20084;-71
2023/03/26 08:12:24;;;;;;;19.92;3.22;;;6.90;99.90;;;;;;5029973;28;20122;-72
2023/03/26 08:15:02;;;;;;;16.05;2.38;;;7.00;99.90;;;;;;5035850;28;20070;-73
2023/03/26 08:17:50;;;;;;;18.42;3.30;;;7.10;99.90;;;;;;5037681;28;20045;-73
2023/03/26 08:21:05;;;;;;;22.63;2.80;;;7.20;99.90;;;;;;5032888;28;20139;-72
2023/03/26 08:23:55;;;;;;;17.98;2.58;;;7.30;99.90;;;;;;5039315;28;20092;-73
2023/03/26 08:26:28;;;;;;;24.33;3.28;;;7.40;99.90;;;;;;5035246;28;20049;-72
2023/03/26 08:29:14;;;;;;;15.98;2.60;;;7.50;99.90;;;;;;5033325;28;20063;-71
2023/03/26 08:31:43;;;;;;;17.45;3.75;;;7.50;99.90;;;;;;5035629;28;20548;-72
2023/03/26 08:34:11;;;;;;;24.45;5.93;;;7.50;99.90;;;;;;5019697;28;20052;-72
2023/03/26 08:36:37;;;;;;;24.98;2.88;;;7.50;99.90;;;;;;5044956;28;20658;-79
2023/03/26 08:39:04;;;;;;;20.15;3.10;;;7.50;99.90;;;;;;5041369;28;20052;-79
2023/03/26 08:41:49;;;;;;;14.93;2.83;;;7.50;99.90;;;;;;5024579;28;20041;-78
2023/03/26 08:44:36;;;;;;;19.80;2.92;;;7.40;99.90;;;;;;5020685;28;20102;-79
2023/03/26 08:47:20;;;;;;;16.45;2.20;;;7.40;99.90;;;;;;5034693;28;20161;-79
2023/03/26 08:50:05;;;;;;;17.15;3.08;;;7.40;99.90;;;;;;5018014;28;20043;-79
2023/03/26 08:53:08;;;;;;;20.38;3.00;;;7.40;99.90;;;;;;5024073;28;20657;-78
2023/03/26 08:55:55;;;;;;;19.08;3.10;;;7.40;99.90;;;;;;5039125;28;20055;-78
2023/03/26 08:58:42;;;;;;;19.80;2.72;;;7.30;99.90;;;;;;5034462;28;20041;-80
2023/03/26 09:01:51;;;;;;;17.95;2.97;;;7.20;99.90;;;;;;5030892;28;20804;-80
2023/03/26 09:04:26;;;;;;;17.10;2.90;;;7.30;99.90;;;;;;5016005;28;20077;-80
2023/03/26 09:07:18;;;;;;;14.55;1.98;;;7.30;99.90;;;;;;5042839;28;20049;-80
2023/03/26 09:10:08;;;;;;;;;;;7.30;99.90;;;;;;5026053;28;20049;-81
2023/03/26 09:13:11;;;;;;;13.75;2.88;;;7.30;99.90;;;;;;5026335;28;19928;-79
2023/03/26 09:16:05;;;;;;;13.27;2.20;;;7.30;99.90;;;;;;5030101;28;20832;-81
2023/03/26 09:18:50;;;;;;;18.33;2.28;;;7.30;99.90;;;;;;5017825;28;20041;-79
2023/03/26 09:21:48;;;;;;;14.98;2.88;;;7.30;99.90;;;;;;5027341;28;20049;-80
2023/03/26 09:24:34;;;;;;;16.33;2.47;;;7.30;99.90;;;;;;5026209;28;20334;-80
2023/03/26 09:27:33;;;;;;;20.33;2.28;;;7.40;99.90;;;;;;5008518;28;20047;-80
2023/03/26 09:30:41;;;;;;;26.88;2.67;;;7.30;99.90;;;;;;5016844;28;20074;-80
2023/03/26 09:33:30;;;;;;;15.60;2.20;;;7.40;99.90;;;;;;5006408;28;20045;-80
2023/03/26 09:36:08;;;;;;;13.85;2.15;;;7.30;99.90;;;;;;5028360;28;20917;-80
2023/03/26 09:38:53;;;;;;;22.02;2.92;;;7.30;99.90;;;;;;5035165;28;20064;-81
2023/03/26 09:41:37;;;;;;;16.63;2.38;;;7.30;99.90;;;;;;5049442;28;20052;-81
2023/03/26 09:44:31;;;;;;;18.20;2.67;;;7.30;99.90;;;;;;5041312;28;20566;-80
2023/03/26 09:47:20;;;;;;;20.17;2.45;;;7.30;99.90;;;;;;5036122;28;20048;-81
2023/03/26 09:49:49;;;;;;;17.27;2.40;;;7.30;99.90;;;;;;5018510;28;20040;-81
2023/03/26 09:52:27;;;;;;;17.75;2.33;;;7.30;99.90;;;;;;5054790;28;20055;-81
2023/03/26 09:55:13;;;;;;;20.00;2.17;;;7.00;99.90;;;;;;5037306;28;20075;-79
2023/03/26 09:57:41;;;;;;;18.35;2.30;;;7.20;99.90;;;;;;5034833;28;20415;-80
2023/03/26 10:00:39;;;;;;;11.73;1.85;;;7.20;99.90;;;;;;5041891;28;20560;-79
2023/03/26 10:03:23;;;;;;;15.50;1.95;;;7.30;99.90;;;;;;5042636;28;20056;-80
2023/03/26 10:06:11;;;;;;;16.60;3.17;;;7.30;99.90;;;;;;5037664;28;20051;-81
2023/03/26 10:09:06;;;;;;;15.68;1.77;;;7.30;99.90;;;;;;5049021;28;20041;-82
2023/03/26 10:12:09;;;;;;;18.48;2.33;;;7.30;99.90;;;;;;5021110;28;20175;-79
2023/03/26 10:14:50;;;;;;;15.88;2.22;;;7.30;99.90;;;;;;5050523;28;20569;-79
2023/03/26 10:17:44;;;;;;;18.50;2.85;;;7.30;99.90;;;;;;5053237;28;20045;-79
2023/03/26 10:20:32;;;;;;;22.75;2.50;;;7.30;99.90;;;;;;5043325;28;20043;-80
2023/03/26 10:23:28;;;;;;;19.25;2.33;;;7.20;99.90;;;;;;5038747;28;20408;-80
2023/03/26 10:26:13;;;;;;;14.07;2.38;;;7.20;99.90;;;;;;5049849;28;20056;-79
2023/03/26 10:29:05;;;;;;;14.40;1.83;;;7.20;99.90;;;;;;5038889;28;20097;-79
2023/03/26 10:32:12;;;;;;;11.57;2.00;;;7.30;99.90;;;;;;5048005;28;20036;-81
2023/03/26 10:34:41;;;;;;;15.35;2.28;;;7.30;99.90;;;;;;5058799;28;20430;-81
2023/03/26 10:37:17;;;;;;;15.20;2.22;;;7.40;99.90;;;;;;5052505;28;20113;-79
2023/03/26 10:40:04;;;;;;;12.10;1.98;;;7.30;99.90;;;;;;5047761;28;20428;-79
2023/03/26 10:43:08;;;;;;;23.95;3.08;;;7.30;99.90;;;;;;5051427;28;20607;-81
2023/03/26 10:45:53;;;;;;;15.05;2.50;;;7.40;99.90;;;;;;5054341;28;20393;-80
2023/03/26 10:48:33;;;;;;;15.55;2.92;;;7.40;99.90;;;;;;5021721;28;20144;-80
2023/03/26 10:51:05;;;;;;;14.77;2.60;;;7.40;99.90;;;;;;5037123;28;20059;-78
2023/03/26 10:53:42;;;;;;;17.30;2.35;;;7.40;99.90;;;;;;5045848;28;20060;-80
2023/03/26 10:56:20;;;;;;;14.90;1.77;;;7.40;99.90;;;;;;5038111;28;20089;-81
2023/03/26 10:58:46;;;;;;;18.58;2.30;;;7.40;99.90;;;;;;5034172;28;20531;-80
2023/03/26 11:01:29;;;;;;;17.83;2.05;;;7.40;99.90;;;;;;5043301;28;20670;-81
2023/03/26 11:03:57;;;;;;;18.52;2.28;;;7.40;99.90;;;;;;5025763;28;20048;-79
2023/03/26 11:06:49;;;;;;;11.40;2.50;;;7.30;99.90;;;;;;5060896;28;20060;-80
2023/03/26 11:09:39;;;;;;;12.25;2.10;;;7.30;99.90;;;;;;5034738;28;20059;-82
2023/03/26 11:12:16;;;;;;;15.95;2.70;;;7.30;99.90;;;;;;5026506;28;20044;-81
2023/03/26 11:14:52;;;;;;;15.98;1.98;;;7.30;99.90;;;;;;5038389;28;20398;-82
2023/03/26 11:17:44;;;;;;;18.45;2.72;;;7.40;99.90;;;;;;5039246;28;20990;-80
2023/03/26 11:20:15;;;;;;;;;;;7.30;99.90;;;;;;5035531;28;20095;-80
2023/03/26 11:22:56;;;;;;;13.73;2.05;;;7.30;99.90;;;;;;5046236;28;20003;-77
2023/03/26 11:25:22;;;;;;;20.17;2.38;;;7.50;99.90;;;;;;5045542;28;20059;-81
2023/03/26 11:28:04;;;;;;;14.27;2.10;;;7.40;99.90;;;;;;5052729;28;20349;-80
2023/03/26 11:30:55;;;;;;;13.70;2.33;;;7.40;99.90;;;;;;5048827;28;20102;-80
2023/03/26 11:33:48;;;;;;;13.40;2.20;;;7.50;99.90;;;;;;5013015;28;20106;-80
2023/03/26 11:36:22;;;;;;;20.80;2.35;;;7.50;99.90;;;;;;5032543;28;20053;-81
2023/03/26 11:38:56;;;;;;;13.90;1.92;;;7.50;99.90;;;;;;5014819;28;20053;-80
2023/03/26 11:41:25;;;;;;;14.77;2.30;;;7.40;99.90;;;;;;5051589;28;20052;-81
2023/03/26 11:43:55;;;;;;;15.82;2.05;;;7.40;99.90;;;;;;5050106;28;21383;-80
2023/03/26 11:46:24;;;;;;;16.20;2.13;;;7.80;99.90;;;;;;5014104;28;20048;-80
2023/03/26 11:48:56;;;;;;;15.75;2.72;;;7.30;99.90;;;;;;5035457;28;20041;-81
2023/03/26 11:51:32;;;;;;;11.20;1.98;;;7.40;99.90;;;;;;5026451;28;20126;-80
2023/03/26 11:54:03;;;;;;;14.23;1.98;;;7.80;99.90;;;;;;5027397;28;20507;-79
2023/03/26 11:56:57;;;;;;;14.02;1.75;;;7.30;99.90;;;;;;5010261;28;20045;-80
2023/03/26 11:59:34;;;;;;;16.65;3.17;;;7.40;99.90;;;;;;5027494;28;20063;-81
2023/03/26 12:02:11;;;;;;;14.73;3.13;;;7.40;99.90;;;;;;5034988;28;20048;-81
2023/03/26 12:04:39;;;;;;;17.08;1.90;;;7.40;99.90;;;;;;5035502;28;20071;-83
2023/03/26 12:07:19;;;;;;;15.82;2.20;;;7.40;99.90;;;;;;5051320;28;20045;-80
2023/03/26 12:09:55;;;;;;;11.88;1.98;;;7.40;99.90;;;;;;5017614;28;20048;-82
2023/03/26 12:12:24;;;;;;;10.65;2.28;;;7.50;99.90;;;;;;5012029;28;20044;-79
2023/03/26 12:14:50;;;;;;;12.13;1.83;;;7.40;99.90;;;;;;5045985;28;20076;-82
2023/03/26 12:17:36;;;;;;;14.00;1.83;;;7.40;99.90;;;;;;5029907;28;20521;-82
2023/03/26 12:20:24;;;;;;;12.38;1.90;;;7.40;99.90;;;;;;5007792;28;20056;-80
2023/03/26 12:22:58;;;;;;;22.80;2.45;;;7.40;99.90;;;;;;5026636;28;20048;-80
2023/03/26 12:25:30;;;;;;;12.05;2.85;;;7.40;99.90;;;;;;5027619;28;20793;-81
2023/03/26 12:28:15;;;;;;;16.08;2.10;;;7.40;99.90;;;;;;5029620;28;20093;-81
2023/03/26 12:30:56;;;;;;;16.10;2.50;;;7.40;99.90;;;;;;5012251;28;20702;-81
2023/03/26 12:33:27;;;;;;;16.45;2.17;;;7.40;99.90;;;;;;5031895;28;20052;-80
2023/03/26 12:35:56;;;;;;;18.23;2.30;;;7.40;99.90;;;;;;5035546;28;20048;-82
2023/03/26 12:38:34;;;;;;;14.13;1.92;;;7.40;99.90;;;;;;5014160;28;20055;-81
2023/03/26 12:41:09;;;;;;;14.52;2.20;;;8.10;99.90;;;;;;5034699;28;20045;-80
2023/03/26 12:43:46;;;;;;;15.82;1.88;;;7.40;99.90;;;;;;5030280;28;20048;-82
2023/03/26 12:46:23;;;;;;;15.95;2.03;;;7.50;99.90;;;;;;5034645;28;20090;-79
2023/03/26 12:48:56;;;;;;;10.27;1.85;;;7.60;99.90;;;;;;5027912;28;20816;-80
2023/03/26 12:51:39;;;;;;;14.10;2.53;;;7.50;99.90;;;;;;5025199;28;20524;-81
2023/03/26 12:54:16;;;;;;;13.52;1.95;;;7.40;99.90;;;;;;5043740;28;20056;-80
2023/03/26 12:57:04;;;;;;;14.38;1.90;;;7.30;99.90;;;;;;5012726;28;20344;-80
2023/03/26 12:59:58;;;;;;;10.07;1.90;;;7.40;99.90;;;;;;5027004;28;20717;-82
2023/03/26 13:02:48;;;;;;;17.55;1.83;;;7.40;99.90;;;;;;5042889;28;20147;-78
2023/03/26 13:05:29;;;;;;;18.45;1.88;;;7.40;99.90;;;;;;5030122;28;20048;-80
2023/03/26 13:08:31;;;;;;;12.68;2.42;;;7.40;99.90;;;;;;5029049;28;20051;-80
2023/03/26 13:11:21;;;;;;;12.93;1.80;;;7.40;99.90;;;;;;5031588;28;20047;-79
2023/03/26 13:13:55;;;;;;;14.07;2.00;;;7.40;99.90;;;;;;5030688;28;20664;-81
2023/03/26 13:16:32;;;;;;;11.18;2.05;;;7.40;99.90;;;;;;5018011;28;20786;-81
2023/03/26 13:19:10;;;;;;;14.52;2.40;;;7.50;99.90;;;;;;5034026;28;20055;-79
2023/03/26 13:21:56;;;;;;;11.52;2.10;;;7.50;99.90;;;;;;5038290;28;20098;-81
2023/03/26 13:24:40;;;;;;;15.50;2.17;;;7.50;99.90;;;;;;5053240;28;20055;-80
2023/03/26 13:27:35;;;;;;;18.65;2.20;;;7.50;99.90;;;;;;5035175;28;20049;-79